Terminal Aerodrome Forecast
Issued by NWS

Home | Current Version | Previous Version | Graphics & Text | Print | Product List | Glossary On
Versions: 1 2 3 4 5 6 7 8 9 10 11 12 13 14 15
000
FTUS41 KCLE 150500
TAFFDY
TAF
KFDY 150520Z 1506/1606 30014G24KT 6SM -RASN BR OVC008
      TEMPO 1506/1507 1 1/2SM -SN BR OVC006
     FM150700 31015G25KT 4SM -SN BR OVC008
      TEMPO 1507/1511 1 1/2SM -SN BR OVC006
     FM151100 30015G25KT 6SM -SN BR OVC025
      TEMPO 1511/1513 4SM -SN BR OVC012
     FM151300 31015G25KT P6SM SCT025 BKN045
      TEMPO 1513/1516 6SM -SHSN BKN025
     FM151600 31018G28KT P6SM BKN045
     FM152300 31014G20KT P6SM SCT250
     FM160300 30003KT P6SM SKC=

USA.gov is the U.S. government's official web portal to all federal, state and local government web resources and services.